Time;durP1;ratioP1;P1;durP2;ratioP2;P2;SDS_P1;SDS_P2;PMS_P1;PMS_P2;Temp;Humidity;BMP_temperature;BMP_pressure;BME280_temperature;BME280_humidity;BME280_pressure;Samples;Min_cycle;Max_cycle;Signal;HPM_P1;HPM_P2
2022/04/15 00:00:43;;;;;;;3.80;3.60;;;16.20;54.40;;;;;;20539;6741;310856;-72
2022/04/15 00:03:20;;;;;;;4.70;3.72;;;16.30;53.80;;;;;;20722;6721;336080;-72
2022/04/15 00:05:55;;;;;;;4.33;3.67;;;16.60;53.10;;;;;;20988;6705;117786;-72
2022/04/15 00:08:31;;;;;;;4.50;3.67;;;16.40;53.30;;;;;;20780;6705;310339;-72
2022/04/15 00:11:07;;;;;;;4.00;3.70;;;16.40;52.90;;;;;;20622;6711;306878;-72
2022/04/15 00:13:43;;;;;;;3.20;3.00;;;16.70;52.40;;;;;;20957;6704;122599;-73
2022/04/15 00:16:19;;;;;;;3.67;3.37;;;16.40;52.60;;;;;;20753;6717;304194;-72
2022/04/15 00:18:56;;;;;;;3.40;3.10;;;16.40;52.60;;;;;;20901;6745;118096;-72
2022/04/15 00:21:32;;;;;;;2.90;2.80;;;16.20;53.20;;;;;;20811;6736;117552;-73
2022/04/15 00:24:07;;;;;;;3.30;3.10;;;15.90;54.10;;;;;;20828;6744;117037;-72
2022/04/15 00:26:44;;;;;;;5.07;3.37;;;15.60;54.70;;;;;;20843;6727;118640;-72
2022/04/15 00:29:20;;;;;;;3.33;3.10;;;15.50;55.20;;;;;;20717;6722;303708;-72
2022/04/15 00:31:55;;;;;;;4.03;3.73;;;15.70;54.10;;;;;;20618;6739;117320;-72
2022/04/15 00:34:35;;;;;;;4.55;3.80;;;16.00;54.10;;;;;;20644;6749;278092;-72
2022/04/15 00:37:07;;;;;;;4.05;3.78;;;16.00;53.90;;;;;;20643;6740;340363;-73
2022/04/15 00:39:46;;;;;;;3.83;3.53;;;16.30;53.50;;;;;;20854;6741;117304;-72
2022/04/15 00:42:20;;;;;;;4.13;3.93;;;16.20;53.90;;;;;;20881;6741;117033;-72
2022/04/15 00:44:58;;;;;;;4.30;4.00;;;15.90;55.20;;;;;;20594;6761;341906;-73
2022/04/15 00:47:51;;;;;;;5.37;4.97;;;16.10;55.50;;;;;;20888;6739;116939;-73
2022/04/15 00:50:26;;;;;;;5.95;5.50;;;16.00;55.30;;;;;;20569;6768;308691;-72
2022/04/15 00:53:06;;;;;;;6.13;5.63;;;16.20;55.10;;;;;;20688;6730;306428;-73
2022/04/15 00:55:39;;;;;;;5.33;4.87;;;16.60;54.10;;;;;;20764;6711;277723;-72
2022/04/15 00:58:14;;;;;;;5.80;5.30;;;16.80;53.30;;;;;;20700;6730;310035;-73
2022/04/15 01:00:51;;;;;;;6.13;5.53;;;16.90;52.90;;;;;;20850;6711;121117;-73
2022/04/15 01:03:26;;;;;;;5.87;5.37;;;16.60;53.50;;;;;;20947;6718;116762;-73
2022/04/15 01:06:04;;;;;;;4.43;4.10;;;16.30;54.40;;;;;;20931;6726;116786;-72
2022/04/15 01:08:40;;;;;;;5.50;5.00;;;15.90;54.90;;;;;;20743;6711;275784;-73
2022/04/15 01:11:16;;;;;;;5.77;5.30;;;16.30;54.40;;;;;;20639;6711;314969;-72
2022/04/15 01:13:52;;;;;;;6.43;5.80;;;16.30;53.80;;;;;;20745;6711;307081;-73
2022/04/15 01:16:28;;;;;;;6.03;5.13;;;16.50;53.20;;;;;;20755;6711;305071;-73
2022/04/15 01:19:04;;;;;;;5.65;5.05;;;16.60;52.50;;;;;;20735;6711;305140;-73
2022/04/15 01:21:39;;;;;;;4.70;4.30;;;16.60;51.90;;;;;;20816;6711;117735;-73
2022/04/15 01:24:16;;;;;;;5.40;5.00;;;16.20;52.60;;;;;;20754;6711;276234;-73
2022/04/15 01:26:51;;;;;;;5.13;4.73;;;16.10;52.50;;;;;;20952;6711;117843;-73
2022/04/15 01:29:27;;;;;;;4.73;4.43;;;15.90;53.20;;;;;;20971;6711;117411;-72
2022/04/15 01:32:03;;;;;;;4.40;4.10;;;15.50;54.10;;;;;;20728;6782;118367;-74
2022/04/15 01:34:38;;;;;;;5.00;4.60;;;15.20;55.00;;;;;;20698;6725;277549;-73
2022/04/15 01:37:14;;;;;;;5.23;4.87;;;15.40;54.40;;;;;;20686;6735;314348;-75
2022/04/15 01:39:49;;;;;;;4.75;4.35;;;15.70;53.80;;;;;;20606;6752;334786;-74
2022/04/15 01:42:25;;;;;;;4.62;4.32;;;16.00;53.40;;;;;;20690;6735;276537;-74
2022/04/15 01:45:00;;;;;;;4.40;4.10;;;16.10;52.50;;;;;;20882;6735;121088;-73
2022/04/15 01:47:36;;;;;;;4.87;4.57;;;15.90;53.30;;;;;;20670;6725;304887;-77
2022/04/15 01:50:12;;;;;;;4.80;4.50;;;15.90;53.10;;;;;;20809;6748;118064;-73
2022/04/15 01:52:47;;;;;;;4.17;3.87;;;15.70;53.50;;;;;;20888;6737;117037;-73
2022/04/15 01:55:23;;;;;;;5.85;5.35;;;15.30;54.30;;;;;;20679;6735;277160;-72
2022/04/15 01:57:58;;;;;;;4.70;4.40;;;15.50;54.20;;;;;;20687;6732;276449;-72
2022/04/15 02:00:34;;;;;;;4.73;4.00;;;15.80;53.70;;;;;;20841;6735;116847;-72
2022/04/15 02:03:09;;;;;;;4.90;4.40;;;15.70;54.10;;;;;;21043;6687;116802;-72
2022/04/15 02:05:45;;;;;;;5.30;4.80;;;15.30;54.70;;;;;;20778;6703;305390;-72
2022/04/15 02:08:21;;;;;;;5.00;4.60;;;15.50;54.20;;;;;;20953;6717;117969;-72
2022/04/15 02:10:57;;;;;;;5.10;4.78;;;15.40;54.50;;;;;;20662;6702;336260;-72
2022/04/15 02:13:32;;;;;;;5.85;5.40;;;15.50;54.40;;;;;;20728;6722;275233;-72
2022/04/15 02:16:09;;;;;;;5.73;5.33;;;15.80;53.50;;;;;;20711;6725;309446;-72
2022/04/15 02:18:44;;;;;;;4.97;4.47;;;15.80;53.80;;;;;;21016;6690;117137;-72
2022/04/15 02:21:20;;;;;;;5.40;4.90;;;15.80;53.80;;;;;;20655;6705;284989;-72
2022/04/15 02:23:55;;;;;;;5.15;4.78;;;15.80;53.50;;;;;;20784;6704;304900;-72
2022/04/15 02:26:31;;;;;;;5.10;4.60;;;16.00;53.20;;;;;;20760;6710;305210;-72
2022/04/15 02:29:06;;;;;;;5.00;4.50;;;16.20;52.80;;;;;;20969;6706;116666;-72
2022/04/15 02:31:42;;;;;;;5.37;4.97;;;15.90;53.30;;;;;;20817;6707;121565;-72
2022/04/15 02:34:18;;;;;;;5.57;5.20;;;15.50;54.30;;;;;;20845;6681;332784;-72
2022/04/15 02:36:53;;;;;;;5.77;5.27;;;15.70;54.40;;;;;;20829;6681;308364;-72
2022/04/15 02:39:29;;;;;;;5.30;4.47;;;16.00;53.90;;;;;;21063;6681;116773;-72
2022/04/15 02:42:04;;;;;;;6.73;5.47;;;15.80;54.10;;;;;;20636;6766;279547;-72
2022/04/15 02:44:40;;;;;;;5.90;5.00;;;15.90;54.10;;;;;;20752;6696;275266;-72
2022/04/15 02:47:16;;;;;;;5.17;4.80;;;16.00;53.20;;;;;;20932;6720;113925;-72
2022/04/15 02:49:51;;;;;;;4.95;4.57;;;15.80;53.60;;;;;;20670;6736;280504;-72
2022/04/15 02:52:27;;;;;;;5.10;4.80;;;15.70;54.10;;;;;;20866;6751;117079;-72
2022/04/15 02:55:04;;;;;;;6.40;5.80;;;15.60;54.00;;;;;;20672;6750;305939;-72
2022/04/15 02:57:39;;;;;;;6.53;5.70;;;15.60;54.00;;;;;;20840;6751;117109;-72
2022/04/15 03:00:15;;;;;;;6.72;6.12;;;15.50;54.90;;;;;;20652;6737;278837;-73
2022/04/15 03:02:51;;;;;;;6.77;6.17;;;15.50;55.20;;;;;;20944;6714;118271;-72
2022/04/15 03:05:27;;;;;;;6.63;6.13;;;15.40;55.10;;;;;;20667;6736;307058;-72
2022/04/15 03:08:03;;;;;;;6.07;5.47;;;15.60;55.00;;;;;;20855;6747;118146;-73
2022/04/15 03:10:38;;;;;;;5.60;4.97;;;15.50;55.30;;;;;;20806;6747;117413;-73
2022/04/15 03:13:17;;;;;;;6.90;5.30;;;15.30;56.10;;;;;;20946;6738;117108;-72
2022/04/15 03:15:51;;;;;;;5.90;5.50;;;15.10;56.60;;;;;;20968;6717;116952;-72
2022/04/15 03:18:26;;;;;;;6.73;6.17;;;14.90;56.90;;;;;;20693;6735;285320;-72
2022/04/15 03:21:02;;;;;;;6.75;6.32;;;15.30;56.30;;;;;;20595;6725;277608;-72
2022/04/15 03:23:39;;;;;;;6.53;5.93;;;15.70;55.10;;;;;;20904;6732;120195;-72
2022/04/15 03:26:13;;;;;;;7.10;6.50;;;15.70;55.30;;;;;;20741;6717;281336;-73
2022/04/15 03:28:51;;;;;;;7.27;6.77;;;15.80;54.30;;;;;;20715;6717;309684;-72
2022/04/15 03:31:24;;;;;;;6.20;5.70;;;16.00;53.30;;;;;;20867;6715;118017;-72
2022/04/15 03:34:00;;;;;;;7.65;6.95;;;15.80;53.80;;;;;;20782;6701;304495;-73
2022/04/15 03:36:35;;;;;;;6.00;5.60;;;15.90;53.90;;;;;;20942;6715;117355;-75
2022/04/15 03:39:11;;;;;;;7.40;6.57;;;15.70;54.30;;;;;;20941;6720;116906;-72
2022/04/15 03:41:47;;;;;;;7.28;6.70;;;15.40;54.20;;;;;;20599;6717;282109;-73
2022/04/15 03:44:23;;;;;;;6.77;6.27;;;15.40;54.10;;;;;;20782;6695;277971;-73
2022/04/15 03:46:59;;;;;;;6.63;6.10;;;15.70;53.40;;;;;;20966;6707;117178;-73
2022/04/15 03:49:34;;;;;;;6.40;5.80;;;15.50;53.70;;;;;;20769;6707;304669;-72
2022/04/15 03:52:10;;;;;;;5.93;5.53;;;15.50;53.20;;;;;;20930;6725;116930;-73
2022/04/15 03:54:45;;;;;;;6.07;5.37;;;15.40;53.80;;;;;;20822;6740;117120;-73
2022/04/15 03:57:22;;;;;;;6.80;6.30;;;14.80;55.20;;;;;;20914;6729;117840;-73
2022/04/15 03:59:57;;;;;;;6.17;5.77;;;14.80;55.20;;;;;;20892;6729;116857;-72
2022/04/15 04:02:33;;;;;;;7.35;6.85;;;14.60;55.80;;;;;;20642;6728;335033;-72
2022/04/15 04:05:09;;;;;;;7.03;6.63;;;14.80;55.10;;;;;;20682;6725;308622;-72
2022/04/15 04:07:44;;;;;;;7.47;6.93;;;15.20;54.20;;;;;;20793;6701;307344;-72
2022/04/15 04:10:20;;;;;;;6.83;6.20;;;15.50;53.40;;;;;;20860;6727;122921;-72
2022/04/15 04:12:55;;;;;;;7.43;6.93;;;15.30;53.90;;;;;;20691;6727;318680;-72
2022/04/15 04:15:31;;;;;;;6.40;6.00;;;15.30;53.80;;;;;;20955;6716;120545;-72
2022/04/15 04:18:13;;;;;;;6.67;6.27;;;14.80;55.40;;;;;;20911;6727;117325;-72
2022/04/15 04:20:43;;;;;;;7.20;6.60;;;14.80;54.80;;;;;;20799;6732;118945;-72
2022/04/15 04:23:18;;;;;;;7.27;6.57;;;14.60;55.50;;;;;;20954;6717;116886;-72
2022/04/15 04:25:54;;;;;;;7.17;6.47;;;14.40;56.10;;;;;;21002;6698;118032;-72
2022/04/15 04:28:30;;;;;;;8.20;7.53;;;14.50;55.60;;;;;;20748;6714;309198;-72
2022/04/15 04:31:06;;;;;;;8.07;7.47;;;14.50;55.60;;;;;;20795;6728;118858;-72
2022/04/15 04:33:41;;;;;;;6.67;6.27;;;14.50;55.60;;;;;;20978;6717;120594;-72
2022/04/15 04:36:18;;;;;;;7.03;6.45;;;14.50;56.40;;;;;;20730;6732;276194;-71
2022/04/15 04:38:53;;;;;;;8.48;7.78;;;14.50;56.30;;;;;;20718;6717;326254;-72
2022/04/15 04:41:29;;;;;;;8.75;7.95;;;14.90;54.20;;;;;;20544;6732;308557;-72
2022/04/15 04:44:05;;;;;;;8.30;7.60;;;15.20;53.20;;;;;;20645;6743;314220;-72
2022/04/15 04:46:40;;;;;;;6.83;6.23;;;15.30;52.80;;;;;;20828;6753;117693;-72
2022/04/15 04:49:16;;;;;;;5.33;4.93;;;15.00;53.40;;;;;;20827;6753;122089;-72
2022/04/15 04:51:55;;;;;;;7.50;6.80;;;14.60;54.50;;;;;;20535;6733;303241;-72
2022/04/15 04:54:33;;;;;;;7.30;6.70;;;14.70;54.00;;;;;;20709;6733;305531;-72
2022/04/15 04:57:20;;;;;;;6.47;6.03;;;15.00;53.70;;;;;;20624;6762;276269;-72
2022/04/15 05:00:03;;;;;;;;;;;;;;;;;;;;;
2022/04/15 05:02:32;;;;;;;6.63;6.13;;;15.00;53.60;;;;;;20902;6736;118148;-71
2022/04/15 05:05:05;;;;;;;7.32;6.82;;;14.70;54.60;;;;;;20681;6735;276029;-71
2022/04/15 05:07:40;;;;;;;7.90;7.40;;;14.90;54.80;;;;;;20704;6732;278216;-71
2022/04/15 05:10:17;;;;;;;7.60;6.23;;;15.20;54.50;;;;;;20878;6732;117875;-71
2022/04/15 05:13:02;;;;;;;8.17;7.57;;;15.10;54.30;;;;;;20753;6717;288039;-71
2022/04/15 05:15:32;;;;;;;7.80;7.10;;;15.30;54.00;;;;;;20976;6717;115777;-71
2022/04/15 05:18:05;;;;;;;7.67;6.83;;;15.20;54.40;;;;;;20968;6717;116888;-71
2022/04/15 05:20:45;;;;;;;7.40;6.90;;;14.90;55.10;;;;;;20560;6796;338122;-71
2022/04/15 05:23:16;;;;;;;9.02;8.32;;;15.10;55.00;;;;;;20783;6703;334418;-72
2022/04/15 05:25:52;;;;;;;8.83;8.13;;;15.50;54.30;;;;;;20691;6732;276673;-71
2022/04/15 05:28:28;;;;;;;8.37;7.63;;;15.80;53.80;;;;;;20899;6736;116958;-71
2022/04/15 05:31:03;;;;;;;8.27;7.47;;;15.70;54.30;;;;;;20796;6736;118563;-71
2022/04/15 05:33:39;;;;;;;9.15;8.40;;;15.40;54.20;;;;;;20757;6710;309634;-72
2022/04/15 05:36:16;;;;;;;8.43;7.90;;;15.40;54.20;;;;;;20759;6710;309139;-71
2022/04/15 05:38:51;;;;;;;7.67;7.00;;;15.70;53.50;;;;;;20952;6710;119644;-72
2022/04/15 05:41:26;;;;;;;8.87;6.40;;;15.50;53.90;;;;;;20810;6710;121464;-72
2022/04/15 05:44:03;;;;;;;6.90;6.30;;;15.20;54.70;;;;;;20974;6710;122962;-71
2022/04/15 05:46:37;;;;;;;6.37;5.97;;;15.00;55.40;;;;;;20958;6710;116888;-72
2022/04/15 05:49:13;;;;;;;5.57;5.07;;;14.80;55.90;;;;;;20933;6724;118263;-72
2022/04/15 05:51:48;;;;;;;6.20;5.67;;;14.70;56.30;;;;;;20720;6736;117795;-71
2022/04/15 05:54:24;;;;;;;5.93;5.47;;;14.60;57.20;;;;;;20933;6723;116814;-71
2022/04/15 05:57:00;;;;;;;7.10;6.53;;;14.50;56.90;;;;;;20696;6724;297876;-72
2022/04/15 05:59:35;;;;;;;6.70;6.03;;;14.90;56.10;;;;;;20932;6724;117269;-72
2022/04/15 06:02:11;;;;;;;6.80;6.10;;;14.90;56.00;;;;;;20927;6724;117949;-72
2022/04/15 06:04:48;;;;;;;6.83;6.33;;;14.80;56.50;;;;;;20699;6724;310406;-72
2022/04/15 06:07:22;;;;;;;6.87;6.37;;;15.10;55.80;;;;;;20632;6750;277664;-72
2022/04/15 06:09:58;;;;;;;6.93;6.32;;;15.50;54.90;;;;;;20648;6736;341480;-71
2022/04/15 06:12:54;;;;;;;7.17;6.57;;;15.80;54.10;;;;;;20742;6714;287068;-72
2022/04/15 06:15:11;;;;;;;6.93;6.40;;;16.10;53.60;;;;;;20647;6786;326218;-71
2022/04/15 06:17:44;;;;;;;5.93;5.53;;;16.30;53.40;;;;;;20882;6734;117476;-69
2022/04/15 06:20:20;;;;;;;6.50;6.10;;;16.10;54.00;;;;;;20652;6715;307460;-70
2022/04/15 06:22:56;;;;;;;7.20;6.60;;;16.20;53.70;;;;;;20711;6715;294150;-70
2022/04/15 06:25:31;;;;;;;6.30;5.53;;;16.40;53.20;;;;;;20910;6715;116999;-69
2022/04/15 06:28:07;;;;;;;5.70;5.37;;;16.10;54.40;;;;;;20873;6730;117854;-69
2022/04/15 06:30:43;;;;;;;6.57;6.17;;;16.10;54.70;;;;;;20593;6734;311163;-70
2022/04/15 06:33:20;;;;;;;8.20;5.70;;;16.30;54.10;;;;;;20965;6709;117084;-70
2022/04/15 06:36:01;;;;;;;7.43;5.70;;;16.40;54.60;;;;;;20965;6715;117233;-70
2022/04/15 06:38:37;;;;;;;5.77;5.40;;;16.30;55.20;;;;;;20848;6734;116936;-72
2022/04/15 06:41:13;;;;;;;6.90;6.47;;;16.30;55.70;;;;;;20654;6704;288542;-71
2022/04/15 06:43:48;;;;;;;6.80;6.10;;;16.50;53.60;;;;;;20845;6730;117023;-71
2022/04/15 06:46:24;;;;;;;7.20;6.70;;;16.60;53.90;;;;;;20857;6745;116958;-72
2022/04/15 06:49:00;;;;;;;7.23;6.57;;;16.50;54.30;;;;;;20848;6745;117493;-72
2022/04/15 06:51:36;;;;;;;6.90;6.50;;;16.50;55.30;;;;;;20682;6744;118011;-71
2022/04/15 06:54:11;;;;;;;7.73;7.07;;;16.50;55.20;;;;;;20635;6749;307386;-71
2022/04/15 06:56:48;;;;;;;7.68;7.12;;;17.40;52.60;;;;;;20656;6736;334702;-71
2022/04/15 06:59:23;;;;;;;8.37;7.77;;;17.30;52.40;;;;;;20707;6719;302693;-73
2022/04/15 07:02:01;;;;;;;7.10;6.67;;;17.80;52.00;;;;;;20707;6723;117631;-73
2022/04/15 07:04:35;;;;;;;7.63;6.93;;;17.80;52.00;;;;;;20945;6719;116154;-73
2022/04/15 07:07:11;;;;;;;7.37;6.83;;;17.70;52.50;;;;;;20988;6708;118481;-72
2022/04/15 07:09:49;;;;;;;7.90;7.30;;;17.60;52.80;;;;;;20708;6722;275127;-73
2022/04/15 07:12:52;;;;;;;7.43;6.93;;;17.90;51.70;;;;;;20945;6717;119725;-70
2022/04/15 07:15:28;;;;;;;7.80;7.25;;;18.50;50.80;;;;;;20700;6721;308486;-73
2022/04/15 07:18:04;;;;;;;6.90;6.40;;;18.50;50.80;;;;;;20905;6736;116771;-72
2022/04/15 07:20:40;;;;;;;7.68;7.18;;;18.60;51.00;;;;;;20591;6735;338740;-73
2022/04/15 07:23:16;;;;;;;7.67;7.17;;;18.90;50.30;;;;;;20783;6701;274761;-77
2022/04/15 07:25:52;;;;;;;7.83;7.23;;;19.40;49.40;;;;;;20952;6716;116923;-74
2022/04/15 07:28:28;;;;;;;6.90;6.50;;;19.40;49.90;;;;;;20962;6716;116934;-72
2022/04/15 07:31:04;;;;;;;6.70;6.20;;;19.40;50.40;;;;;;20843;6703;117206;-73
2022/04/15 07:33:40;;;;;;;7.20;6.70;;;19.30;50.70;;;;;;20732;6717;305136;-74
2022/04/15 07:39:14;;;;;;;6.90;6.40;;;20.10;47.30;;;;;;20762;6709;304101;-72
2022/04/15 07:41:48;;;;;;;6.80;6.30;;;20.60;47.70;;;;;;20525;6734;307430;-72
2022/04/15 07:44:23;;;;;;;6.60;6.10;;;21.00;47.30;;;;;;20709;6726;295693;-72
2022/04/15 07:46:59;;;;;;;6.43;6.03;;;21.40;45.90;;;;;;20910;6726;116767;-72
2022/04/15 07:49:37;;;;;;;6.40;6.00;;;21.40;46.80;;;;;;20720;6722;305092;-71
2022/04/15 07:52:10;;;;;;;6.07;5.68;;;21.50;44.20;;;;;;20497;6793;307720;-71
2022/04/15 07:54:46;;;;;;;6.43;6.00;;;21.90;44.90;;;;;;20771;6703;279421;-71
2022/04/15 07:57:26;;;;;;;7.10;6.60;;;22.20;42.60;;;;;;20662;6732;309674;-71
2022/04/15 07:59:56;;;;;;;5.80;5.30;;;22.50;43.00;;;;;;20933;6717;117978;-71
2022/04/15 08:02:32;;;;;;;6.90;5.17;;;22.40;44.00;;;;;;20951;6717;119894;-72
2022/04/15 08:05:08;;;;;;;6.07;5.67;;;22.20;44.50;;;;;;20874;6747;118292;-73
2022/04/15 08:07:43;;;;;;;5.97;5.57;;;22.10;45.20;;;;;;20919;6736;116950;-72
2022/04/15 08:10:19;;;;;;;6.47;5.87;;;21.90;45.40;;;;;;20635;6729;309970;-73
2022/04/15 08:12:56;;;;;;;6.40;5.90;;;22.20;44.10;;;;;;20882;6718;117405;-72
2022/04/15 08:15:33;;;;;;;6.60;6.20;;;22.40;44.70;;;;;;20729;6717;304871;-72
2022/04/15 08:18:09;;;;;;;6.40;5.83;;;22.80;43.70;;;;;;20948;6717;117631;-72
2022/04/15 08:20:50;;;;;;;6.13;5.67;;;22.80;43.70;;;;;;20771;6735;119230;-72
2022/04/15 08:23:26;;;;;;;8.03;7.33;;;22.80;44.20;;;;;;20921;6730;121649;-72
2022/04/15 08:25:56;;;;;;;8.00;7.50;;;22.70;44.80;;;;;;20868;6747;117086;-71
2022/04/15 08:28:32;;;;;;;7.83;7.13;;;22.70;44.60;;;;;;20871;6747;117073;-71
2022/04/15 08:31:08;;;;;;;8.25;7.65;;;22.60;44.20;;;;;;20553;6736;343054;-71
2022/04/15 08:33:43;;;;;;;7.60;7.10;;;22.80;41.90;;;;;;20905;6736;116781;-72
2022/04/15 08:36:18;;;;;;;8.47;7.87;;;22.90;43.00;;;;;;20701;6734;277937;-71
2022/04/15 08:38:54;;;;;;;8.40;7.80;;;23.20;42.30;;;;;;20651;6739;334465;-72
2022/04/15 08:41:29;;;;;;;8.90;8.23;;;23.50;41.40;;;;;;20807;6729;117256;-71
2022/04/15 08:44:06;;;;;;;9.80;9.00;;;23.50;42.10;;;;;;20681;6736;306976;-71
2022/04/15 08:46:41;;;;;;;10.38;9.55;;;23.60;40.00;;;;;;20679;6732;307450;-71
2022/04/15 08:49:19;;;;;;;9.97;9.33;;;23.80;39.20;;;;;;20744;6718;276246;-71
2022/04/15 08:51:52;;;;;;;10.00;9.30;;;24.00;40.10;;;;;;20655;6744;117500;-71
2022/04/15 08:54:28;;;;;;;10.63;9.80;;;23.90;40.40;;;;;;20864;6747;117185;-71
2022/04/15 08:57:03;;;;;;;12.37;11.37;;;23.50;40.70;;;;;;20657;6740;306096;-71
2022/04/15 08:59:40;;;;;;;9.43;8.73;;;23.60;40.00;;;;;;20998;6703;117063;-71
2022/04/15 09:02:15;;;;;;;9.90;9.20;;;23.60;40.00;;;;;;21000;6703;116927;-71
2022/04/15 09:04:51;;;;;;;10.93;9.33;;;23.60;40.80;;;;;;20876;6789;118116;-71
2022/04/15 09:07:29;;;;;;;10.67;9.77;;;23.50;41.10;;;;;;20903;6733;117690;-71
2022/04/15 09:10:06;;;;;;;9.93;9.30;;;23.40;40.90;;;;;;20862;6731;117014;-71
2022/04/15 09:12:41;;;;;;;12.50;9.13;;;23.40;40.90;;;;;;20927;6721;116931;-71
2022/04/15 09:15:17;;;;;;;10.27;9.40;;;23.20;40.80;;;;;;20945;6721;117013;-71
2022/04/15 09:17:54;;;;;;;11.20;10.40;;;23.00;41.20;;;;;;20792;6703;275343;-71
2022/04/15 09:20:30;;;;;;;11.43;10.52;;;23.60;37.50;;;;;;20718;6703;335606;-71
2022/04/15 09:23:08;;;;;;;9.90;9.23;;;23.60;37.50;;;;;;20935;6717;118083;-71
2022/04/15 09:25:44;;;;;;;9.47;8.83;;;23.60;40.00;;;;;;20998;6703;121070;-71
2022/04/15 09:28:19;;;;;;;9.60;8.80;;;23.60;40.00;;;;;;20955;6717;120677;-71
2022/04/15 09:30:55;;;;;;;9.20;8.50;;;23.60;40.80;;;;;;20834;6720;117289;-71
2022/04/15 09:33:31;;;;;;;9.30;8.70;;;23.70;41.20;;;;;;20942;6721;122703;-71
2022/04/15 09:36:06;;;;;;;9.33;8.73;;;23.80;40.80;;;;;;20886;6720;118819;-73
2022/04/15 09:38:44;;;;;;;9.37;8.77;;;23.80;40.50;;;;;;20892;6732;127651;-72
2022/04/15 09:41:20;;;;;;;9.27;8.43;;;23.70;40.30;;;;;;20756;6732;117819;-71
2022/04/15 09:43:56;;;;;;;9.83;9.13;;;23.60;40.10;;;;;;20833;6739;116857;-71
2022/04/15 09:46:32;;;;;;;10.33;9.63;;;23.50;39.90;;;;;;20696;6732;276623;-71
2022/04/15 09:49:07;;;;;;;9.90;9.30;;;23.60;36.80;;;;;;20670;6732;280456;-72
2022/04/15 09:51:45;;;;;;;8.53;8.03;;;23.90;36.70;;;;;;20701;6740;119840;-72
2022/04/15 09:54:24;;;;;;;9.20;8.50;;;23.70;38.00;;;;;;20914;6732;117043;-72
2022/04/15 09:57:00;;;;;;;8.93;8.17;;;23.10;39.00;;;;;;20844;6747;120989;-71
2022/04/15 09:59:36;;;;;;;9.23;8.63;;;23.10;38.90;;;;;;20888;6736;116995;-73
2022/04/15 10:02:11;;;;;;;10.20;9.47;;;22.90;39.30;;;;;;20685;6736;310733;-74
2022/04/15 10:04:47;;;;;;;9.67;9.07;;;23.10;37.70;;;;;;20889;6732;118592;-74
2022/04/15 10:07:22;;;;;;;10.60;9.70;;;23.20;38.50;;;;;;20745;6717;276200;-76
2022/04/15 10:10:00;;;;;;;15.05;10.13;;;23.50;37.40;;;;;;20719;6774;277052;-74
2022/04/15 10:12:39;;;;;;;9.93;9.13;;;24.00;35.20;;;;;;20950;6721;117234;-71
2022/04/15 10:15:16;;;;;;;10.70;9.80;;;24.30;36.90;;;;;;20791;6702;335296;-73
2022/04/15 10:17:55;;;;;;;11.90;9.50;;;24.60;36.50;;;;;;20796;6702;304516;-71
2022/04/15 10:20:31;;;;;;;9.82;9.15;;;25.00;36.00;;;;;;20682;6717;309327;-71
2022/04/15 10:23:03;;;;;;;9.80;9.00;;;25.30;33.00;;;;;;20875;6736;119096;-72
2022/04/15 10:25:59;;;;;;;;;;;;;;;;;;;;;
2022/04/15 10:28:42;;;;;;;9.67;8.97;;;24.70;34.80;;;;;;20963;6721;116864;-73
2022/04/15 10:31:17;;;;;;;9.80;9.07;;;24.30;35.80;;;;;;20861;6721;117794;-75
2022/04/15 10:34:05;;;;;;;9.00;8.33;;;23.80;36.60;;;;;;20959;6717;116765;-73
2022/04/15 10:36:41;;;;;;;10.00;9.37;;;23.40;37.30;;;;;;20699;6788;278677;-74
2022/04/15 10:39:09;;;;;;;10.07;9.45;;;23.70;35.50;;;;;;20659;6744;308658;-73
2022/04/15 10:42:04;;;;;;;;;;;;;;;;;;;;;
2022/04/15 10:44:40;;;;;;;9.20;8.40;;;23.90;35.00;;;;;;20941;6774;117085;-72
2022/04/15 10:47:19;;;;;;;9.30;8.70;;;24.00;36.20;;;;;;20750;6717;303528;-73
2022/04/15 10:50:03;;;;;;;8.73;8.13;;;24.20;36.00;;;;;;20665;6789;276313;-72
2022/04/15 10:52:34;;;;;;;8.40;7.73;;;24.60;35.20;;;;;;20942;6730;115863;-73
2022/04/15 10:55:16;;;;;;;9.03;8.37;;;24.60;35.90;;;;;;20916;6730;116893;-72
2022/04/15 10:57:51;;;;;;;8.70;8.00;;;24.40;35.90;;;;;;20760;6730;304954;-73
2022/04/15 11:03:27;;;;;;;8.47;7.87;;;24.70;33.10;;;;;;20981;6717;117371;-72
2022/04/15 11:06:08;;;;;;;8.73;8.13;;;24.50;34.40;;;;;;21015;6703;116798;-72
2022/04/15 11:08:46;;;;;;;8.40;7.80;;;24.00;35.30;;;;;;21000;6703;123089;-73
2022/04/15 11:11:34;;;;;;;7.70;7.10;;;23.80;35.90;;;;;;20897;6703;117332;-71
2022/04/15 11:14:13;;;;;;;8.63;8.00;;;23.70;36.60;;;;;;21029;6702;115831;-72
2022/04/15 11:16:50;;;;;;;7.72;7.15;;;23.70;36.40;;;;;;20799;6717;304100;-71
2022/04/15 11:19:26;;;;;;;7.60;7.10;;;24.00;34.00;;;;;;20721;6795;275746;-74
2022/04/15 11:22:01;;;;;;;7.57;7.03;;;24.40;33.50;;;;;;20812;6721;117802;-74
2022/04/15 11:24:41;;;;;;;6.17;5.77;;;24.20;35.20;;;;;;20938;6732;115995;-73
2022/04/15 11:27:13;;;;;;;6.13;5.77;;;24.20;35.10;;;;;;20780;6715;309171;-73
2022/04/15 11:29:51;;;;;;;6.10;5.60;;;24.50;32.30;;;;;;20676;6730;339396;-75
2022/04/15 11:32:29;;;;;;;5.40;5.10;;;24.50;32.30;;;;;;20963;6724;117169;-73
2022/04/15 11:35:12;;;;;;;5.77;5.37;;;24.40;33.60;;;;;;20635;6748;311909;-74
2022/04/15 11:37:38;;;;;;;4.27;3.97;;;24.50;32.20;;;;;;20880;6748;117529;-75
2022/04/15 11:40:15;;;;;;;4.67;4.40;;;24.50;34.10;;;;;;20828;6748;122820;-74
2022/04/15 11:42:50;;;;;;;6.00;5.67;;;24.40;34.90;;;;;;20856;6748;118950;-72
2022/04/15 11:45:33;;;;;;;7.00;6.47;;;24.30;34.80;;;;;;20889;6748;116787;-72
2022/04/15 11:48:25;;;;;;;7.07;6.67;;;24.30;35.20;;;;;;20841;6748;116877;-71
2022/04/15 11:51:01;;;;;;;7.70;7.10;;;24.30;35.80;;;;;;20661;6736;117425;-72
2022/04/15 11:53:37;;;;;;;7.90;7.30;;;24.30;36.00;;;;;;20699;6732;277987;-72
2022/04/15 11:56:16;;;;;;;6.43;6.03;;;24.40;33.10;;;;;;20926;6732;116749;-73
2022/04/15 11:58:56;;;;;;;6.80;6.40;;;24.40;34.60;;;;;;20885;6735;146777;-72
2022/04/15 12:01:33;;;;;;;7.43;6.93;;;24.20;35.00;;;;;;20572;6721;343343;-73
2022/04/15 12:04:10;;;;;;;7.57;6.97;;;24.30;33.20;;;;;;20732;6721;286974;-72
2022/04/15 12:06:45;;;;;;;6.83;6.43;;;24.50;32.90;;;;;;20906;6721;117050;-71
2022/04/15 12:09:21;;;;;;;7.60;7.10;;;24.40;34.30;;;;;;20906;6721;117262;-71
2022/04/15 12:12:01;;;;;;;7.27;6.77;;;24.10;34.40;;;;;;20709;6715;280388;-71
2022/04/15 12:14:36;;;;;;;7.20;6.67;;;24.00;34.70;;;;;;20954;6715;121028;-71
2022/04/15 12:17:14;;;;;;;8.00;7.50;;;23.80;35.30;;;;;;20761;6715;322746;-71
2022/04/15 12:19:50;;;;;;;7.40;6.90;;;24.00;34.00;;;;;;20909;6732;119499;-73
2022/04/15 12:22:28;;;;;;;6.57;6.17;;;23.90;34.90;;;;;;20838;6751;118935;-69
2022/04/15 12:25:17;;;;;;;7.10;6.60;;;23.70;35.40;;;;;;20654;6732;282827;-69
2022/04/15 12:27:55;;;;;;;6.03;5.62;;;23.90;33.50;;;;;;20663;6733;333703;-69
2022/04/15 12:30:37;;;;;;;6.33;5.97;;;24.10;34.20;;;;;;20798;6789;116766;-70
2022/04/15 12:33:13;;;;;;;5.83;5.43;;;24.00;34.00;;;;;;20872;6740;118161;-70
2022/04/15 12:35:58;;;;;;;6.13;5.73;;;23.80;34.70;;;;;;20891;6732;116958;-70
2022/04/15 12:39:00;;;;;;;6.15;5.75;;;23.60;35.20;;;;;;20671;6732;335371;-70
2022/04/15 12:41:35;;;;;;;5.80;5.40;;;23.70;33.40;;;;;;20673;6751;117364;-70
2022/04/15 12:44:27;;;;;;;6.47;6.07;;;23.60;34.40;;;;;;20712;6718;305210;-70
2022/04/15 12:47:00;;;;;;;5.23;4.93;;;23.70;33.70;;;;;;20887;6732;116959;-70
2022/04/15 12:49:35;;;;;;;5.70;5.30;;;23.70;34.10;;;;;;20714;6718;275878;-69
2022/04/15 12:52:15;;;;;;;5.13;4.83;;;23.70;32.40;;;;;;20945;6718;116886;-70
2022/04/15 12:54:57;;;;;;;5.77;5.23;;;23.50;33.00;;;;;;20716;6718;296301;-74
2022/04/15 12:57:33;;;;;;;5.80;5.40;;;23.50;33.00;;;;;;20739;6718;305249;-69
2022/04/15 13:00:08;;;;;;;5.57;5.18;;;23.80;33.20;;;;;;20676;6718;307604;-70
2022/04/15 13:02:44;;;;;;;4.97;4.67;;;24.00;32.60;;;;;;20872;6736;144017;-69
2022/04/15 13:05:20;;;;;;;5.37;5.00;;;23.60;34.10;;;;;;20932;6719;118561;-68
2022/04/15 13:07:56;;;;;;;6.13;5.53;;;23.60;34.00;;;;;;20957;6714;118066;-69
2022/04/15 13:10:32;;;;;;;5.60;4.73;;;23.50;34.40;;;;;;20884;6715;119656;-69
2022/04/15 13:13:07;;;;;;;5.07;4.70;;;23.30;34.50;;;;;;20928;6721;116978;-69
2022/04/15 13:15:47;;;;;;;6.40;5.40;;;23.20;34.90;;;;;;20956;6717;117050;-69
2022/04/15 13:18:18;;;;;;;5.40;5.10;;;23.10;35.10;;;;;;20784;6702;278170;-70
2022/04/15 13:20:54;;;;;;;5.40;5.00;;;23.30;33.60;;;;;;20930;6688;117698;-70
2022/04/15 13:23:29;;;;;;;5.13;4.83;;;23.30;34.30;;;;;;21023;6687;117245;-70
2022/04/15 13:26:05;;;;;;;5.40;4.90;;;23.20;34.60;;;;;;20831;6687;309771;-69
2022/04/15 13:28:41;;;;;;;5.45;5.05;;;23.30;32.20;;;;;;20714;6714;338423;-69
2022/04/15 13:31:16;;;;;;;4.90;4.60;;;23.70;31.90;;;;;;20837;6714;117708;-70
2022/04/15 13:33:51;;;;;;;4.80;4.50;;;23.60;32.70;;;;;;20957;6717;118356;-69